createdAt,value
2019-02-09T00:01:39.270Z,5.27
2019-02-09T00:06:43.788Z,5.22
2019-02-09T00:11:49.227Z,5.44
2019-02-09T00:16:53.570Z,5.39
2019-02-09T00:21:57.929Z,5.33
2019-02-09T00:27:02.313Z,5.37
2019-02-09T00:32:06.677Z,5.31
2019-02-09T00:37:10.988Z,5.26
2019-02-09T00:42:15.352Z,5.26
2019-02-09T00:47:19.728Z,5.28
2019-02-09T00:52:24.065Z,5.28
2019-02-09T00:57:28.434Z,5.30
2019-02-09T01:02:32.781Z,5.41
2019-02-09T01:07:37.125Z,5.11
2019-02-09T01:12:41.703Z,5.30
2019-02-09T01:17:46.271Z,5.03
2019-02-09T01:22:51.201Z,4.94
2019-02-09T01:27:55.711Z,4.93
2019-02-09T01:33:00.172Z,5.04
2019-02-09T01:38:04.653Z,5.05
2019-02-09T01:43:09.019Z,4.99
2019-02-09T01:48:13.351Z,5.06
2019-02-09T01:53:17.711Z,5.07
2019-02-09T01:58:22.161Z,5.16
2019-02-09T02:03:26.690Z,5.18
2019-02-09T02:08:31.025Z,5.13
2019-02-09T02:13:35.401Z,5.05
2019-02-09T02:18:39.735Z,5.01
2019-02-09T02:23:44.165Z,4.94
2019-02-09T02:28:48.525Z,5.04
2019-02-09T02:33:52.884Z,5.01
2019-02-09T02:38:57.284Z,5.23
2019-02-09T02:44:01.624Z,5.27
2019-02-09T02:49:05.998Z,5.26
2019-02-09T02:54:10.391Z,5.30
2019-02-09T02:59:14.784Z,5.37
2019-02-09T03:04:19.133Z,5.14
2019-02-09T03:09:23.516Z,5.06
2019-02-09T03:14:27.870Z,4.97
2019-02-09T03:19:32.232Z,4.79
2019-02-09T03:24:36.595Z,4.52
2019-02-09T03:29:40.950Z,4.58
2019-02-09T03:34:45.290Z,4.35
2019-02-09T03:39:49.637Z,4.28
2019-02-09T03:44:53.983Z,4.40
2019-02-09T03:49:58.348Z,4.44
2019-02-09T03:55:02.744Z,4.48
2019-02-09T04:00:18.564Z,4.55
2019-02-09T04:05:23.039Z,4.48
2019-02-09T04:10:28.009Z,4.54
2019-02-09T04:15:32.363Z,4.37
2019-02-09T04:20:36.735Z,4.34
2019-02-09T04:25:41.072Z,4.19
2019-02-09T04:30:45.467Z,4.46
2019-02-09T04:35:49.810Z,4.39
2019-02-09T04:40:54.182Z,4.58
2019-02-09T04:45:58.655Z,4.42
2019-02-09T04:51:03.071Z,4.48
2019-02-09T04:56:07.420Z,4.66
2019-02-09T05:01:14.061Z,4.82
2019-02-09T05:06:17.782Z,4.63
2019-02-09T05:11:22.170Z,4.91
2019-02-09T05:16:26.547Z,4.93
2019-02-09T05:21:30.915Z,5.00
2019-02-09T05:26:35.395Z,5.10
2019-02-09T05:31:39.814Z,5.14
2019-02-09T05:36:44.122Z,5.11
2019-02-09T05:41:48.478Z,5.16
2019-02-09T05:46:52.842Z,5.11
2019-02-09T05:51:57.172Z,4.97
2019-02-09T05:57:01.540Z,5.02
2019-02-09T06:02:05.886Z,4.84
2019-02-09T06:07:10.257Z,4.78
2019-02-09T06:12:14.734Z,5.13
2019-02-09T06:17:19.163Z,4.84
2019-02-09T06:22:23.549Z,5.07
2019-02-09T06:27:27.922Z,4.82
2019-02-09T06:32:32.297Z,5.08
2019-02-09T06:37:36.663Z,5.03
2019-02-09T06:42:41.043Z,5.18
2019-02-09T06:47:45.678Z,5.16
2019-02-09T06:52:50.081Z,5.11
2019-02-09T06:57:54.444Z,5.07
2019-02-09T07:02:58.811Z,5.10
2019-02-09T07:08:03.524Z,5.24
2019-02-09T07:13:07.860Z,5.30
2019-02-09T07:18:12.366Z,5.45
2019-02-09T07:23:16.782Z,5.42
2019-02-09T07:28:21.119Z,5.55
2019-02-09T07:33:25.494Z,5.44
2019-02-09T07:38:29.936Z,5.48
2019-02-09T07:43:34.386Z,5.43
2019-02-09T07:48:45.362Z,5.70
2019-02-09T07:53:50.741Z,5.40
2019-02-09T07:58:57.853Z,5.65
2019-02-09T08:04:02.825Z,5.64
2019-02-09T08:09:10.415Z,5.98
2019-02-09T08:14:14.819Z,5.93
2019-02-09T08:19:19.297Z,5.88
2019-02-09T08:24:23.800Z,5.84
2019-02-09T08:29:28.139Z,5.84
2019-02-09T08:34:32.530Z,6.19
2019-02-09T08:39:36.878Z,6.31
2019-02-09T08:44:41.402Z,6.68
2019-02-09T08:49:45.767Z,6.89
2019-02-09T08:54:50.152Z,7.40
2019-02-09T08:59:54.525Z,7.80
2019-02-09T09:04:58.940Z,8.07
2019-02-09T09:10:04.330Z,8.23
2019-02-09T09:15:20.926Z,8.20
2019-02-09T09:20:28.306Z,8.33
2019-02-09T09:25:32.736Z,8.50
2019-02-09T09:30:37.201Z,8.50
2019-02-09T09:35:41.662Z,8.53
2019-02-09T09:40:46.135Z,8.46
2019-02-09T09:45:50.611Z,8.62
2019-02-09T09:50:54.961Z,8.67
2019-02-09T09:55:59.389Z,8.69
2019-02-09T10:01:03.793Z,8.74
2019-02-09T10:06:08.231Z,8.77
2019-02-09T10:11:12.593Z,8.86
2019-02-09T10:16:16.961Z,8.95
2019-02-09T10:21:21.360Z,8.95
2019-02-09T10:26:25.744Z,9.00
2019-02-09T10:31:30.081Z,9.04
2019-02-09T10:36:37.536Z,8.99
2019-02-09T10:41:41.996Z,9.11
2019-02-09T10:46:46.357Z,9.19
2019-02-09T10:51:50.739Z,9.09
2019-02-09T10:56:55.170Z,9.24
2019-02-09T11:02:00.670Z,9.30
2019-02-09T11:07:05.005Z,9.53
2019-02-09T11:12:09.350Z,9.46
2019-02-09T11:17:13.687Z,9.44
2019-02-09T11:22:18.250Z,9.44
2019-02-09T11:27:22.631Z,9.36
2019-02-09T11:32:26.992Z,9.36
2019-02-09T11:37:31.369Z,9.22
2019-02-09T11:42:35.808Z,9.27
2019-02-09T11:47:40.138Z,9.26
2019-02-09T11:52:46.171Z,9.29
2019-02-09T11:57:51.173Z,9.39
2019-02-09T12:03:03.099Z,9.71
2019-02-09T12:08:01.789Z,9.57
2019-02-09T12:13:07.211Z,9.75
2019-02-09T12:18:24.766Z,9.93
2019-02-09T12:23:29.189Z,9.90
2019-02-09T12:28:33.564Z,9.67
2019-02-09T12:33:38.010Z,9.77
2019-02-09T12:38:42.449Z,9.83
2019-02-09T12:43:46.851Z,9.78
2019-02-09T12:48:51.204Z,9.86
2019-02-09T12:53:55.582Z,11.42
2019-02-09T12:58:59.996Z,10.33
2019-02-09T13:04:04.784Z,9.91
2019-02-09T13:09:09.404Z,9.96
2019-02-09T13:14:14.005Z,9.93
2019-02-09T13:19:18.412Z,9.95
2019-02-09T13:24:22.788Z,9.93
2019-02-09T13:29:27.147Z,9.90
2019-02-09T13:34:31.546Z,9.87
2019-02-09T13:39:35.907Z,9.89
2019-02-09T13:44:40.345Z,9.98
2019-02-09T13:49:45.913Z,9.89
2019-02-09T13:54:50.236Z,9.77
2019-02-09T13:59:54.593Z,9.71
2019-02-09T14:04:58.987Z,9.61
2019-02-09T14:10:04.747Z,9.65
2019-02-09T14:15:18.943Z,9.52
2019-02-09T14:20:25.068Z,9.46
2019-02-09T14:25:29.847Z,9.43
2019-02-09T14:30:39.247Z,9.40
2019-02-09T14:35:44.197Z,9.40
2019-02-09T14:40:49.727Z,9.37
2019-02-09T14:45:54.203Z,9.32
2019-02-09T14:50:58.652Z,9.19
2019-02-09T14:56:03.021Z,9.23
2019-02-09T15:01:07.430Z,9.07
2019-02-09T15:06:11.791Z,9.05
2019-02-09T15:11:16.132Z,9.12
2019-02-09T15:16:23.695Z,9.30
2019-02-09T15:21:28.085Z,9.19
2019-02-09T15:26:32.436Z,9.17
2019-02-09T15:31:38.476Z,9.17
2019-02-09T15:36:43.046Z,9.12
2019-02-09T15:41:47.486Z,9.01
2019-02-09T15:46:51.851Z,8.98
2019-02-09T15:51:56.182Z,8.93
2019-02-09T15:57:00.539Z,8.91
2019-02-09T16:02:05.129Z,9.73
2019-02-09T16:07:09.477Z,8.71
2019-02-09T16:12:14.276Z,8.73
2019-02-09T16:17:20.595Z,8.57
2019-02-09T16:22:25.102Z,8.53
2019-02-09T16:27:29.471Z,8.40
2019-02-09T16:32:33.813Z,8.30
2019-02-09T16:37:38.356Z,8.46
2019-02-09T16:42:43.042Z,8.45
2019-02-09T16:47:53.436Z,8.46
2019-02-09T16:52:58.575Z,8.42
2019-02-09T16:58:09.038Z,8.44
2019-02-09T17:03:13.952Z,8.50
2019-02-09T17:08:18.339Z,8.41
2019-02-09T17:13:22.649Z,8.35
2019-02-09T17:18:28.812Z,8.17
2019-02-09T17:23:35.058Z,8.09
2019-02-09T17:28:39.465Z,8.25
2019-02-09T17:33:43.794Z,8.23
2019-02-09T17:38:48.425Z,8.29
2019-02-09T17:43:52.800Z,8.35
2019-02-09T17:48:57.211Z,8.48
2019-02-09T17:54:01.587Z,8.41
2019-02-09T17:59:05.890Z,8.34
2019-02-09T18:04:10.335Z,8.36
2019-02-09T18:09:14.727Z,8.36
2019-02-09T18:14:19.054Z,8.41
2019-02-09T18:19:23.450Z,8.47
2019-02-09T18:24:27.776Z,8.42
2019-02-09T18:29:32.114Z,8.49
2019-02-09T18:34:36.494Z,8.46
2019-02-09T18:39:40.862Z,8.45
2019-02-09T18:44:47.086Z,8.29
2019-02-09T18:49:51.437Z,8.30
2019-02-09T18:54:55.843Z,8.38
2019-02-09T19:00:00.220Z,8.27
2019-02-09T19:05:06.643Z,8.30
2019-02-09T19:10:17.552Z,8.39
2019-02-09T19:15:27.080Z,8.30
2019-02-09T19:20:40.755Z,8.42
2019-02-09T19:25:46.317Z,8.28
2019-02-09T19:30:50.625Z,8.21
2019-02-09T19:35:54.965Z,8.24
2019-02-09T19:40:59.351Z,8.20
2019-02-09T19:46:04.335Z,8.20
2019-02-09T19:51:08.746Z,8.21
2019-02-09T19:56:13.148Z,8.06
2019-02-09T20:01:17.516Z,8.23
2019-02-09T20:06:21.911Z,8.18
2019-02-09T20:11:26.324Z,8.14
2019-02-09T20:16:30.683Z,8.19
2019-02-09T20:21:35.122Z,8.10
2019-02-09T20:26:39.484Z,8.10
2019-02-09T20:31:43.847Z,8.06
2019-02-09T20:36:48.210Z,8.04
2019-02-09T20:41:52.671Z,8.00
2019-02-09T20:46:57.021Z,8.09
2019-02-09T20:52:01.695Z,7.98
2019-02-09T20:57:06.008Z,8.06
2019-02-09T21:02:10.384Z,8.02
2019-02-09T21:07:15.183Z,8.02
2019-02-09T21:12:19.600Z,7.95
2019-02-09T21:17:24.002Z,7.90
2019-02-09T21:22:28.518Z,7.91
2019-02-09T21:27:33.999Z,7.89
2019-02-09T21:32:40.353Z,7.89
2019-02-09T21:37:46.210Z,7.85
2019-02-09T21:42:50.819Z,7.87
2019-02-09T21:47:56.554Z,7.88
2019-02-09T21:53:01.335Z,7.81
2019-02-09T21:58:18.674Z,7.84
2019-02-09T22:03:23.284Z,7.74
2019-02-09T22:08:28.226Z,7.81
2019-02-09T22:13:32.659Z,7.71
2019-02-09T22:18:37.221Z,7.79
2019-02-09T22:23:41.948Z,7.81
2019-02-09T22:28:49.316Z,7.64
2019-02-09T22:33:54.692Z,7.38
2019-02-09T22:38:59.284Z,7.65
2019-02-09T22:44:03.830Z,7.74
2019-02-09T22:49:13.542Z,7.66
2019-02-09T22:54:23.052Z,7.63
2019-02-09T22:59:32.530Z,7.34
2019-02-09T23:04:46.690Z,7.32
2019-02-09T23:09:59.607Z,7.51
2019-02-09T23:15:06.138Z,7.44
2019-02-09T23:20:12.844Z,7.52
2019-02-09T23:25:17.617Z,7.49
2019-02-09T23:30:22.128Z,7.50
2019-02-09T23:35:26.529Z,7.63
2019-02-09T23:40:31.188Z,7.68
2019-02-09T23:45:35.841Z,7.63
2019-02-09T23:50:40.258Z,7.48
2019-02-09T23:55:44.634Z,7.49
